createdAt,value
2024-04-14T00:04:17.591Z,100269.28
2024-04-14T00:09:39.359Z,100255.00
2024-04-14T00:15:00.983Z,100205.00
2024-04-14T00:20:24.345Z,100209.50
2024-04-14T00:25:46.989Z,100179.34
2024-04-14T00:31:08.956Z,100168.75
2024-04-14T00:36:31.084Z,100147.31
2024-04-14T00:41:52.534Z,100191.41
2024-04-14T00:47:14.438Z,100143.06
2024-04-14T00:52:35.962Z,100154.47
2024-04-14T00:57:59.035Z,100117.16
2024-04-14T01:03:21.052Z,100125.44
2024-04-14T01:08:42.447Z,100117.84
2024-04-14T01:14:05.289Z,100149.53
2024-04-14T01:19:27.024Z,100145.38
2024-04-14T01:24:50.356Z,100092.22
2024-04-14T01:30:12.080Z,100078.06
2024-04-14T01:35:34.058Z,100120.53
2024-04-14T01:40:55.671Z,100091.16
2024-04-14T01:46:17.181Z,100035.41
2024-04-14T01:51:38.782Z,100088.31
2024-04-14T01:57:00.160Z,100045.16
2024-04-14T02:02:21.533Z,100082.66
2024-04-14T02:07:43.526Z,100057.13
2024-04-14T02:13:04.909Z,100050.81
2024-04-14T02:18:26.646Z,100004.91
2024-04-14T02:23:48.269Z,100027.13
2024-04-14T02:29:09.815Z,100019.63
2024-04-14T02:34:31.658Z,99970.31
2024-04-14T02:39:54.650Z,99952.34
2024-04-14T02:45:16.875Z,99998.47
2024-04-14T02:50:38.794Z,99982.63
2024-04-14T02:56:00.283Z,99972.50
2024-04-14T03:01:22.371Z,99957.66
2024-04-14T03:06:45.570Z,100007.19
2024-04-14T03:12:07.984Z,99921.22
2024-04-14T03:17:29.486Z,99949.81
2024-04-14T03:22:51.011Z,99997.09
2024-04-14T03:28:12.414Z,99991.25
2024-04-14T03:33:34.090Z,99993.88
2024-04-14T03:38:55.909Z,99959.97
2024-04-14T03:44:17.201Z,99914.19
2024-04-14T03:49:39.650Z,99983.66
2024-04-14T03:55:01.425Z,99982.50
2024-04-14T04:00:23.272Z,99959.97
2024-04-14T04:05:55.477Z,99960.72
2024-04-14T04:11:16.843Z,99957.50
2024-04-14T04:16:40.902Z,99919.59
2024-04-14T04:22:03.832Z,99933.94
2024-04-14T04:27:25.355Z,99895.94
2024-04-14T04:32:46.953Z,99922.91
2024-04-14T04:38:08.534Z,99890.84
2024-04-14T04:43:30.305Z,99889.13
2024-04-14T04:48:53.448Z,99895.66
2024-04-14T04:54:15.283Z,99882.44
2024-04-14T04:59:36.996Z,99932.63
2024-04-14T05:04:58.244Z,99869.09
2024-04-14T05:10:19.928Z,99945.25
2024-04-14T05:15:43.045Z,99859.09
2024-04-14T05:21:04.871Z,99932.00
2024-04-14T05:26:26.833Z,99906.38
2024-04-14T05:31:48.287Z,99873.63
2024-04-14T05:37:11.794Z,99873.47
2024-04-14T05:42:33.604Z,99912.69
2024-04-14T05:47:58.015Z,99911.00
2024-04-14T05:53:20.189Z,99900.78
2024-04-14T05:58:43.300Z,99910.56
2024-04-14T06:04:05.063Z,99861.00
2024-04-14T06:09:26.870Z,99885.50
2024-04-14T06:14:48.354Z,99924.31
2024-04-14T06:20:10.140Z,99853.81
2024-04-14T06:25:31.826Z,99878.09
2024-04-14T06:30:53.420Z,99898.75
2024-04-14T06:36:14.921Z,99920.00
2024-04-14T06:41:36.480Z,99916.69
2024-04-14T06:46:57.847Z,99916.41
2024-04-14T06:52:19.371Z,99920.06
2024-04-14T06:57:40.607Z,99889.44
2024-04-14T07:03:02.042Z,99916.13
2024-04-14T07:08:23.637Z,99945.97
2024-04-14T07:13:44.835Z,99921.16
2024-04-14T07:19:06.368Z,99937.59
2024-04-14T07:24:27.444Z,99948.28
2024-04-14T07:29:49.019Z,99936.16
2024-04-14T07:35:10.315Z,99927.50
2024-04-14T07:40:32.047Z,99959.94
2024-04-14T07:45:53.908Z,99969.41
2024-04-14T07:51:15.168Z,99917.53
2024-04-14T07:56:36.469Z,99943.91
2024-04-14T08:01:57.472Z,99956.50
2024-04-14T08:07:18.833Z,99961.03
2024-04-14T08:12:40.394Z,99979.19
2024-04-14T08:18:03.079Z,99952.97
2024-04-14T08:23:24.421Z,99940.00
2024-04-14T08:28:45.589Z,99978.72
2024-04-14T08:34:09.128Z,99971.50
2024-04-14T08:39:30.808Z,100001.38
2024-04-14T08:44:52.735Z,99999.09
2024-04-14T08:50:14.300Z,100024.03
2024-04-14T08:55:35.767Z,100040.03
2024-04-14T09:01:05.337Z,100007.22
2024-04-14T09:06:30.521Z,100006.66
2024-04-14T09:11:54.868Z,100057.19
2024-04-14T09:17:16.857Z,100029.06
2024-04-14T09:22:38.594Z,100025.53
2024-04-14T09:28:12.116Z,100052.53
2024-04-14T09:33:33.719Z,100084.06
2024-04-14T09:38:55.922Z,100015.97
2024-04-14T09:44:20.884Z,100056.47
2024-04-14T09:49:45.188Z,100064.69
2024-04-14T09:55:07.824Z,100047.75
2024-04-14T10:00:29.656Z,100042.81
2024-04-14T10:05:51.507Z,100075.06
2024-04-14T10:11:13.037Z,100088.38
2024-04-14T10:16:34.443Z,100107.88
2024-04-14T10:22:02.996Z,100089.50
2024-04-14T10:27:24.873Z,100115.53
2024-04-14T10:32:48.562Z,100083.41
2024-04-14T10:38:21.553Z,100092.72
2024-04-14T10:43:44.981Z,100112.53
2024-04-14T10:49:06.563Z,100123.63
2024-04-14T10:54:30.812Z,100049.03
2024-04-14T10:59:52.164Z,100082.66
2024-04-14T11:05:13.707Z,100072.16
2024-04-14T11:10:35.120Z,100111.63
2024-04-14T11:16:00.460Z,100046.41
2024-04-14T11:21:25.359Z,100070.22
2024-04-14T11:26:47.278Z,100098.44
2024-04-14T11:32:28.822Z,100116.06
2024-04-14T11:37:52.496Z,100145.53
2024-04-14T11:43:13.735Z,100114.91
2024-04-14T11:48:35.034Z,100112.06
2024-04-14T11:53:56.701Z,100140.25
2024-04-14T11:59:18.215Z,100138.50
2024-04-14T12:04:39.513Z,100099.53
2024-04-14T12:10:00.998Z,100129.00
2024-04-14T12:15:22.303Z,100152.41
2024-04-14T12:20:43.606Z,100129.47
2024-04-14T12:26:05.403Z,100137.91
2024-04-14T12:31:27.013Z,100097.31
2024-04-14T12:36:49.338Z,100101.75
2024-04-14T12:42:11.821Z,100107.56
2024-04-14T12:47:34.586Z,100126.84
2024-04-14T12:52:56.207Z,100128.06
2024-04-14T12:58:17.497Z,100116.09
2024-04-14T13:03:38.800Z,100160.06
2024-04-14T13:09:01.210Z,100182.22
2024-04-14T13:14:22.446Z,100134.72
2024-04-14T13:19:43.650Z,100136.13
2024-04-14T13:25:08.287Z,100160.34
2024-04-14T13:30:30.079Z,100174.41
2024-04-14T13:35:51.668Z,100113.97
2024-04-14T13:41:13.094Z,100165.97
2024-04-14T13:46:34.935Z,100121.81
2024-04-14T13:51:56.103Z,100098.69
2024-04-14T13:57:18.787Z,100133.06
2024-04-14T14:02:40.395Z,100140.22
2024-04-14T14:08:03.070Z,100123.53
2024-04-14T14:13:26.905Z,100142.66
2024-04-14T14:18:49.870Z,100131.84
2024-04-14T14:24:11.577Z,100136.66
2024-04-14T14:29:33.124Z,100160.22
2024-04-14T14:35:13.325Z,100140.31
2024-04-14T14:40:34.840Z,100126.47
2024-04-14T14:45:55.812Z,100169.00
2024-04-14T14:51:17.241Z,100151.31
2024-04-14T14:56:38.845Z,100149.16
2024-04-14T15:02:00.517Z,100145.63
2024-04-14T15:07:22.136Z,100148.16
2024-04-14T15:12:44.592Z,100134.38
2024-04-14T15:18:08.901Z,100142.78
2024-04-14T15:23:34.634Z,100117.75
2024-04-14T15:28:56.449Z,100119.72
2024-04-14T15:34:17.659Z,100112.19
2024-04-14T15:39:40.452Z,100125.78
2024-04-14T15:45:01.483Z,100116.88
2024-04-14T15:50:23.163Z,100161.03
2024-04-14T15:55:44.710Z,100119.78
2024-04-14T16:01:05.845Z,100169.22
2024-04-14T16:06:28.801Z,100174.47
2024-04-14T16:11:50.407Z,100098.34
2024-04-14T16:17:11.826Z,100123.31
2024-04-14T16:22:32.967Z,100156.91
2024-04-14T16:27:54.413Z,100140.03
2024-04-14T16:33:16.628Z,100113.94
2024-04-14T16:38:38.553Z,100075.00
2024-04-14T16:44:00.782Z,100151.22
2024-04-14T16:49:23.091Z,100169.53
2024-04-14T16:54:45.232Z,100129.13
2024-04-14T17:00:09.762Z,100100.97
2024-04-14T17:05:32.692Z,100150.75
2024-04-14T17:10:55.015Z,100161.72
2024-04-14T17:16:17.180Z,100103.72
2024-04-14T17:21:39.138Z,100128.22
2024-04-14T17:27:01.542Z,100128.25
2024-04-14T17:32:23.972Z,100125.47
2024-04-14T17:37:46.286Z,100126.41
2024-04-14T17:43:09.069Z,100175.19
2024-04-14T17:48:32.019Z,100073.91
2024-04-14T17:53:54.522Z,100067.13
2024-04-14T17:59:17.651Z,100163.47
2024-04-14T18:04:41.371Z,100183.25
2024-04-14T18:10:03.269Z,100073.06
2024-04-14T18:15:25.415Z,100084.25
2024-04-14T18:20:49.102Z,100147.66
2024-04-14T18:26:10.652Z,100174.50
2024-04-14T18:31:32.418Z,100186.78
2024-04-14T18:36:55.433Z,100182.66
2024-04-14T18:42:17.391Z,100199.09
2024-04-14T18:47:39.172Z,100195.38
2024-04-14T18:53:00.893Z,100146.56
2024-04-14T18:58:22.658Z,100200.09
2024-04-14T19:03:44.853Z,100209.16
2024-04-14T19:09:06.567Z,100205.94
2024-04-14T19:14:28.443Z,100186.34
2024-04-14T19:19:51.097Z,100156.69
2024-04-14T19:25:13.767Z,100165.09
2024-04-14T19:30:35.602Z,100123.53
2024-04-14T19:35:58.516Z,100192.84
2024-04-14T19:41:21.178Z,100140.22
2024-04-14T19:46:43.094Z,100111.63
2024-04-14T19:52:05.089Z,100180.75
2024-04-14T19:57:26.931Z,100082.09
2024-04-14T20:02:51.450Z,100151.66
2024-04-14T20:15:52.562Z,100193.34
2024-04-14T20:57:14.922Z,100079.41
2024-04-14T21:02:42.776Z,100044.06
2024-04-14T21:08:34.050Z,100033.69
2024-04-14T21:14:57.628Z,100096.66
2024-04-14T21:20:33.741Z,100153.47
2024-04-14T21:32:23.129Z,100152.19
2024-04-14T21:37:47.402Z,100046.53
2024-04-14T21:43:13.870Z,100020.41
2024-04-14T21:49:03.168Z,100132.78
2024-04-14T22:01:20.291Z,100053.44
2024-04-14T22:14:30.843Z,100087.47
2024-04-14T22:27:09.734Z,100091.50
2024-04-14T22:33:12.686Z,100058.38
2024-04-14T22:45:09.860Z,100014.50
2024-04-14T22:51:26.873Z,100119.84
2024-04-14T22:56:55.557Z,100056.31
2024-04-14T23:02:30.806Z,99998.06
2024-04-14T23:07:59.571Z,100019.22
2024-04-14T23:13:24.064Z,100022.03
2024-04-14T23:18:45.816Z,100006.91
2024-04-14T23:24:32.983Z,100090.75
2024-04-14T23:30:00.466Z,99984.56
2024-04-14T23:35:27.599Z,99957.91
2024-04-14T23:40:53.730Z,99932.88
2024-04-14T23:46:23.264Z,99938.19
2024-04-14T23:51:51.297Z,99928.44
2024-04-14T23:57:13.412Z,100035.47
